Time;durP1;ratioP1;P1;durP2;ratioP2;P2;SDS_P1;SDS_P2;PMS_P1;PMS_P2;Temp;Humidity;BMP_temperature;BMP_pressure;BME280_temperature;BME280_humidity;BME280_pressure;Samples;Min_cycle;Max_cycle;Signal;HPM_P1;HPM_P2
2020/12/18 00:01:30;;;;;;;1.27;0.70;;;21.60;46.70;;;;;;1495466;94;21935;-36
2020/12/18 00:03:58;;;;;;;1.30;0.90;;;21.60;46.70;;;;;;1490877;94;21191;-33
2020/12/18 00:06:37;;;;;;;1.22;0.90;;;21.60;46.70;;;;;;1498301;94;21199;-35
2020/12/18 00:09:06;;;;;;;1.47;1.10;;;21.60;46.70;;;;;;1494926;93;21219;-34
2020/12/18 00:11:33;;;;;;;2.17;1.02;;;21.60;46.70;;;;;;1485457;93;21187;-33
2020/12/18 00:14:01;;;;;;;2.17;1.22;;;21.60;46.70;;;;;;1503085;93;21230;-35
2020/12/18 00:16:32;;;;;;;3.47;1.10;;;21.50;46.70;;;;;;1503792;93;21768;-35
2020/12/18 00:18:58;;;;;;;1.70;1.10;;;21.50;46.60;;;;;;1486745;94;21226;-34
2020/12/18 00:21:25;;;;;;;2.80;1.10;;;21.50;46.60;;;;;;1495535;92;21175;-34
2020/12/18 00:23:53;;;;;;;2.00;1.17;;;21.50;46.60;;;;;;1487839;94;22822;-35
2020/12/18 00:26:21;;;;;;;3.60;1.17;;;21.50;46.60;;;;;;1475536;94;21287;-34
2020/12/18 00:28:49;;;;;;;2.10;1.10;;;21.50;46.60;;;;;;1489757;94;21703;-35
2020/12/18 00:31:17;;;;;;;1.07;0.93;;;21.50;46.60;;;;;;1487817;94;21223;-34
2020/12/18 00:33:45;;;;;;;0.95;0.70;;;21.50;46.60;;;;;;1470259;94;21375;-35
2020/12/18 00:36:14;;;;;;;0.68;0.68;;;21.50;46.60;;;;;;1488305;94;21187;-34
2020/12/18 00:38:42;;;;;;;1.07;0.90;;;21.50;46.60;;;;;;1444835;95;21668;-35
2020/12/18 00:41:13;;;;;;;1.77;1.00;;;21.50;46.60;;;;;;1488401;94;21208;-34
2020/12/18 00:43:41;;;;;;;2.20;1.00;;;21.50;46.70;;;;;;1487491;94;21243;-35
2020/12/18 00:46:09;;;;;;;1.45;1.00;;;21.40;46.60;;;;;;1472285;95;21288;-36
2020/12/18 00:48:37;;;;;;;1.37;0.80;;;21.50;46.60;;;;;;1485848;94;22256;-37
2020/12/18 00:51:04;;;;;;;2.37;1.22;;;21.50;46.60;;;;;;1487888;94;21818;-35
2020/12/18 00:53:37;;;;;;;1.15;1.05;;;21.50;46.60;;;;;;1488529;95;21235;-36
2020/12/18 00:56:09;;;;;;;1.92;1.12;;;21.50;46.70;;;;;;1481926;94;21264;-35
2020/12/18 00:58:37;;;;;;;2.60;0.95;;;21.40;46.60;;;;;;1468522;94;21320;-35
2020/12/18 01:01:05;;;;;;;1.62;1.20;;;21.40;46.60;;;;;;1487158;94;21220;-35
2020/12/18 01:03:33;;;;;;;1.45;1.10;;;21.40;46.60;;;;;;1472385;94;21232;-34
2020/12/18 01:06:09;;;;;;;1.35;0.85;;;21.40;46.60;;;;;;1487716;94;21282;-36
2020/12/18 01:08:37;;;;;;;2.10;1.00;;;21.40;46.70;;;;;;1482185;93;67852;-32
2020/12/18 01:11:06;;;;;;;1.52;1.02;;;21.60;50.30;;;;;;1487290;94;21152;-34
2020/12/18 01:13:35;;;;;;;1.02;0.93;;;21.40;46.60;;;;;;1485269;94;21237;-34
2020/12/18 01:16:03;;;;;;;1.35;0.90;;;21.50;46.60;;;;;;1483675;94;22152;-34
2020/12/18 01:18:31;;;;;;;2.45;1.10;;;21.40;46.60;;;;;;1454366;96;21398;-35
2020/12/18 01:21:00;;;;;;;1.20;0.90;;;21.40;46.60;;;;;;1485222;93;21617;-35
2020/12/18 01:23:28;;;;;;;1.50;0.85;;;21.40;46.60;;;;;;1462342;96;21156;-34
2020/12/18 01:25:56;;;;;;;1.52;1.10;;;21.40;46.60;;;;;;1483840;93;21665;-34
2020/12/18 01:28:24;;;;;;;2.25;1.00;;;21.40;46.60;;;;;;1484049;94;21315;-34
2020/12/18 01:30:52;;;;;;;1.45;0.72;;;21.40;46.50;;;;;;1485073;94;21183;-35
2020/12/18 01:33:20;;;;;;;2.47;1.02;;;21.40;46.60;;;;;;1488331;94;21426;-35
2020/12/18 01:35:47;;;;;;;1.17;1.02;;;21.40;47.10;;;;;;1488001;94;21235;-35
2020/12/18 01:38:15;;;;;;;1.07;0.88;;;21.40;46.60;;;;;;1453649;94;21259;-35
2020/12/18 01:40:42;;;;;;;4.22;1.10;;;21.40;46.60;;;;;;1505186;93;21259;-33
2020/12/18 01:43:10;;;;;;;1.60;1.00;;;21.40;46.50;;;;;;1487740;93;21454;-35
2020/12/18 01:45:38;;;;;;;3.27;1.00;;;21.40;46.50;;;;;;1471265;94;21785;-35
2020/12/18 01:48:05;;;;;;;1.32;1.20;;;21.40;46.50;;;;;;1489667;93;21275;-35
2020/12/18 01:50:33;;;;;;;1.55;1.00;;;21.40;46.60;;;;;;1461202;95;21767;-35
2020/12/18 01:53:01;;;;;;;1.30;0.70;;;21.40;46.50;;;;;;1490251;94;21406;-34
2020/12/18 01:55:30;;;;;;;1.80;0.90;;;21.40;46.50;;;;;;1487046;93;21208;-34
2020/12/18 01:57:58;;;;;;;1.45;1.12;;;21.30;46.50;;;;;;1475766;94;21220;-34
2020/12/18 02:00:28;;;;;;;1.90;0.95;;;21.30;46.40;;;;;;1484896;93;21237;-37
2020/12/18 02:02:56;;;;;;;1.35;0.93;;;21.40;46.50;;;;;;1499081;93;21255;-35
2020/12/18 02:05:24;;;;;;;1.65;1.00;;;21.30;46.40;;;;;;1471328;95;21247;-35
2020/12/18 02:08:04;;;;;;;1.57;1.07;;;21.30;46.40;;;;;;1487780;94;21735;-36
2020/12/18 02:10:33;;;;;;;1.82;0.80;;;21.30;46.50;;;;;;1504410;93;21193;-34
2020/12/18 02:13:01;;;;;;;1.70;0.90;;;21.30;46.50;;;;;;1489269;94;21289;-35
2020/12/18 02:15:30;;;;;;;0.72;0.72;;;21.30;46.50;;;;;;1482913;94;21582;-36
2020/12/18 02:17:59;;;;;;;0.98;0.80;;;21.30;46.50;;;;;;1451861;93;21316;-36
2020/12/18 02:20:27;;;;;;;1.75;1.12;;;21.30;46.50;;;;;;1505245;92;21222;-34
2020/12/18 02:22:55;;;;;;;1.00;0.80;;;21.30;46.50;;;;;;1524025;92;21765;-36
2020/12/18 02:25:23;;;;;;;1.45;0.80;;;21.30;46.50;;;;;;1495630;93;21215;-35
2020/12/18 02:27:51;;;;;;;2.20;0.90;;;21.30;46.50;;;;;;1476121;94;21742;-36
2020/12/18 02:30:18;;;;;;;1.20;0.93;;;21.30;46.50;;;;;;1478246;94;21152;-34
2020/12/18 02:32:46;;;;;;;1.82;0.80;;;21.30;46.50;;;;;;1488422;94;21770;-34
2020/12/18 02:35:14;;;;;;;2.35;1.20;;;21.20;46.50;;;;;;1469837;95;21289;-37
2020/12/18 02:37:41;;;;;;;0.78;0.65;;;21.30;46.50;;;;;;1485530;94;21321;-34
2020/12/18 02:40:09;;;;;;;1.82;0.80;;;21.20;46.30;;;;;;1490149;92;21188;-35
2020/12/18 02:42:36;;;;;;;1.22;0.82;;;21.30;46.40;;;;;;1452273;94;21168;-34
2020/12/18 02:45:05;;;;;;;1.00;0.72;;;21.30;46.80;;;;;;1486370;94;22385;-35
2020/12/18 02:47:32;;;;;;;1.40;0.90;;;21.20;46.50;;;;;;1498064;93;21767;-35
2020/12/18 02:50:00;;;;;;;1.60;1.07;;;21.30;46.50;;;;;;1473101;94;21338;-35
2020/12/18 02:52:28;;;;;;;1.07;0.80;;;21.30;46.60;;;;;;1486372;94;21283;-34
2020/12/18 02:54:55;;;;;;;1.62;1.00;;;21.30;46.50;;;;;;1465941;93;21211;-34
2020/12/18 02:57:23;;;;;;;1.85;0.80;;;21.30;46.50;;;;;;1512721;92;21396;-35
2020/12/18 02:59:50;;;;;;;1.07;0.98;;;21.30;46.60;;;;;;1493867;93;21217;-35
2020/12/18 03:02:18;;;;;;;1.15;0.78;;;21.30;46.50;;;;;;1488820;94;21689;-34
2020/12/18 03:04:46;;;;;;;1.52;0.90;;;21.30;47.00;;;;;;1489199;94;21312;-36
2020/12/18 03:07:13;;;;;;;3.40;0.80;;;21.30;46.40;;;;;;1494873;93;21319;-34
2020/12/18 03:09:41;;;;;;;2.00;1.00;;;21.40;46.40;;;;;;1469572;94;21220;-34
2020/12/18 03:12:09;;;;;;;1.75;1.10;;;21.40;46.40;;;;;;1486282;94;21238;-33
2020/12/18 03:14:37;;;;;;;1.40;0.93;;;21.40;46.40;;;;;;1482284;93;21271;-35
2020/12/18 03:17:04;;;;;;;0.95;0.70;;;21.40;46.30;;;;;;1484522;94;22675;-35
2020/12/18 03:19:32;;;;;;;1.52;0.90;;;21.50;46.40;;;;;;1483945;94;21604;-36
2020/12/18 03:21:59;;;;;;;1.20;0.82;;;21.40;46.30;;;;;;1454528;94;21192;-34
2020/12/18 03:24:27;;;;;;;0.62;0.60;;;21.40;46.30;;;;;;1499156;93;21242;-35
2020/12/18 03:26:55;;;;;;;1.45;0.80;;;21.40;46.30;;;;;;1499845;93;21284;-36
2020/12/18 03:29:23;;;;;;;1.35;0.80;;;21.40;46.30;;;;;;1477358;94;21282;-34
2020/12/18 03:31:50;;;;;;;1.57;0.98;;;21.40;46.30;;;;;;1486570;94;21296;-33
2020/12/18 03:34:18;;;;;;;1.50;0.90;;;21.40;46.20;;;;;;1482327;94;21252;-34
2020/12/18 03:36:46;;;;;;;3.15;0.80;;;21.50;46.20;;;;;;1504929;93;21298;-34
2020/12/18 03:39:13;;;;;;;0.82;0.68;;;21.50;46.20;;;;;;1505555;93;21381;-34
2020/12/18 03:41:41;;;;;;;0.90;0.80;;;21.50;46.20;;;;;;1481900;93;21202;-35
2020/12/18 03:44:09;;;;;;;1.72;0.90;;;21.50;46.20;;;;;;1496198;93;21220;-35
2020/12/18 03:46:36;;;;;;;1.85;0.75;;;21.50;46.20;;;;;;1461338;94;21818;-35
2020/12/18 03:49:04;;;;;;;5.00;0.90;;;21.50;46.20;;;;;;1487873;95;21293;-35
2020/12/18 03:51:32;;;;;;;1.05;0.90;;;21.60;46.60;;;;;;1484360;94;21231;-34
2020/12/18 03:53:59;;;;;;;0.75;0.57;;;21.50;46.10;;;;;;1484794;94;21778;-34
2020/12/18 03:56:27;;;;;;;1.35;0.72;;;21.60;46.20;;;;;;1481377;94;21381;-34
2020/12/18 03:58:55;;;;;;;1.15;0.70;;;21.60;46.20;;;;;;1477077;94;21233;-33
2020/12/18 04:01:24;;;;;;;1.45;0.90;;;21.60;46.10;;;;;;1466446;95;21622;-34
2020/12/18 04:03:51;;;;;;;1.00;0.88;;;21.60;46.10;;;;;;1486782;94;21289;-35
2020/12/18 04:06:22;;;;;;;1.70;1.00;;;21.60;46.20;;;;;;1471675;96;21196;-36
2020/12/18 04:08:50;;;;;;;0.88;0.70;;;21.60;46.20;;;;;;1486905;94;21295;-34
2020/12/18 04:11:17;;;;;;;1.22;0.80;;;21.60;46.20;;;;;;1479860;94;22211;-37
2020/12/18 04:13:45;;;;;;;1.37;0.80;;;21.60;46.20;;;;;;1488294;94;21829;-34
2020/12/18 04:16:13;;;;;;;1.65;1.00;;;21.50;46.10;;;;;;1488023;94;21493;-34
2020/12/18 04:18:40;;;;;;;1.07;0.70;;;21.60;46.20;;;;;;1486502;94;21219;-34
2020/12/18 04:21:08;;;;;;;1.72;0.90;;;21.60;46.20;;;;;;1476865;95;22391;-35
2020/12/18 04:23:38;;;;;;;0.88;0.78;;;21.60;46.20;;;;;;1493897;94;21282;-34
2020/12/18 04:26:05;;;;;;;0.90;0.80;;;21.60;46.20;;;;;;1482467;94;21593;-34
2020/12/18 04:28:33;;;;;;;2.27;0.78;;;21.60;46.20;;;;;;1441952;94;21245;-35
2020/12/18 04:31:01;;;;;;;1.20;0.80;;;21.60;46.10;;;;;;1489051;94;22420;-34
2020/12/18 04:33:28;;;;;;;1.12;0.80;;;21.60;46.10;;;;;;1484638;94;21267;-35
2020/12/18 04:35:56;;;;;;;1.92;0.90;;;21.60;46.10;;;;;;1487029;94;21276;-34
2020/12/18 04:38:23;;;;;;;0.85;0.75;;;21.60;46.10;;;;;;1487296;93;21217;-35
2020/12/18 04:40:52;;;;;;;1.35;0.70;;;21.60;46.40;;;;;;1447705;94;21692;-35
2020/12/18 04:43:20;;;;;;;0.78;0.78;;;21.60;46.10;;;;;;1489588;94;21730;-34
2020/12/18 04:45:48;;;;;;;1.32;1.22;;;21.60;46.10;;;;;;1481140;94;21156;-34
2020/12/18 04:48:18;;;;;;;1.07;0.82;;;21.60;46.10;;;;;;1475372;93;21278;-35
2020/12/18 04:50:47;;;;;;;0.68;0.60;;;21.60;46.10;;;;;;1485432;94;21541;-34
2020/12/18 04:53:15;;;;;;;0.70;0.70;;;21.60;46.10;;;;;;1478179;94;21690;-37
2020/12/18 04:55:46;;;;;;;1.98;0.75;;;21.60;46.10;;;;;;1491225;94;21397;-35
2020/12/18 04:58:16;;;;;;;1.17;0.70;;;21.60;46.10;;;;;;1490436;94;21299;-35
2020/12/18 05:00:46;;;;;;;1.40;0.90;;;21.60;46.10;;;;;;1470995;95;21366;-34
2020/12/18 05:03:17;;;;;;;1.42;0.72;;;21.60;45.90;;;;;;1481480;94;21271;-35
2020/12/18 05:05:45;;;;;;;2.05;0.70;;;21.60;46.10;;;;;;1499540;93;21251;-36
2020/12/18 05:08:12;;;;;;;1.60;0.70;;;21.60;46.10;;;;;;1465646;95;21211;-33
2020/12/18 05:10:40;;;;;;;0.82;0.70;;;21.60;46.10;;;;;;1488038;94;21223;-34
2020/12/18 05:13:08;;;;;;;0.70;0.70;;;21.60;46.10;;;;;;1488944;93;21144;-36
2020/12/18 05:15:35;;;;;;;0.82;0.60;;;21.60;46.10;;;;;;1486119;94;21598;-35
2020/12/18 05:18:04;;;;;;;0.75;0.75;;;21.60;46.00;;;;;;1482364;94;21203;-34
2020/12/18 05:20:32;;;;;;;0.55;0.50;;;21.60;46.00;;;;;;1486044;93;21930;-33
2020/12/18 05:23:00;;;;;;;0.65;0.60;;;21.60;46.00;;;;;;1486608;94;21313;-34
2020/12/18 05:25:27;;;;;;;1.12;0.72;;;21.60;46.00;;;;;;1469126;94;21832;-35
2020/12/18 05:27:56;;;;;;;1.62;0.80;;;21.60;46.00;;;;;;1468032;94;21191;-36
2020/12/18 05:30:24;;;;;;;3.98;0.60;;;21.60;46.00;;;;;;1482335;94;21796;-34
2020/12/18 05:32:55;;;;;;;0.62;0.60;;;21.60;46.00;;;;;;1501990;92;21191;-34
2020/12/18 05:35:23;;;;;;;1.32;0.70;;;21.60;46.00;;;;;;1484430;94;21256;-35
2020/12/18 05:37:51;;;;;;;1.00;0.62;;;21.60;46.60;;;;;;1485655;94;21486;-36
2020/12/18 05:40:19;;;;;;;2.62;1.30;;;21.60;46.00;;;;;;1469373;94;21276;-37
2020/12/18 05:42:48;;;;;;;1.27;0.70;;;21.60;45.60;;;;;;1484678;94;21303;-34
2020/12/18 05:45:18;;;;;;;1.45;0.90;;;21.60;46.00;;;;;;1498941;93;21305;-36
2020/12/18 05:48:03;;;;;;;1.25;0.62;;;21.60;46.00;;;;;;1462910;95;21236;-35
2020/12/18 05:50:36;;;;;;;1.10;0.80;;;21.60;46.00;;;;;;1473867;94;68001;-35
2020/12/18 05:53:06;;;;;;;1.27;0.70;;;21.60;46.00;;;;;;1434985;96;21196;-34
2020/12/18 05:55:37;;;;;;;0.75;0.60;;;21.60;46.00;;;;;;1475898;95;21203;-35
2020/12/18 05:58:06;;;;;;;1.57;0.93;;;21.60;46.00;;;;;;1480892;94;21274;-35
2020/12/18 06:00:36;;;;;;;2.00;0.75;;;21.60;46.00;;;;;;1468362;95;21228;-38
2020/12/18 06:03:07;;;;;;;1.50;0.85;;;21.60;46.00;;;;;;1477484;95;21197;-37
2020/12/18 06:05:38;;;;;;;2.05;0.82;;;21.60;46.00;;;;;;1473091;95;21247;-35
2020/12/18 06:08:14;;;;;;;2.55;0.90;;;21.60;46.00;;;;;;1483343;95;21259;-35
2020/12/18 06:10:42;;;;;;;1.50;0.70;;;21.60;46.00;;;;;;1483377;95;21235;-33
2020/12/18 06:13:10;;;;;;;1.80;0.90;;;21.60;46.00;;;;;;1458149;96;21164;-35
2020/12/18 06:15:38;;;;;;;2.20;0.80;;;21.60;46.00;;;;;;1478279;95;21793;-35
2020/12/18 06:18:06;;;;;;;2.05;0.82;;;21.60;46.00;;;;;;1460171;95;21753;-35
2020/12/18 06:20:37;;;;;;;1.00;0.80;;;21.60;46.00;;;;;;1458476;95;21660;-38
2020/12/18 06:23:06;;;;;;;1.90;0.93;;;21.60;46.00;;;;;;1483321;95;21336;-35
2020/12/18 06:25:35;;;;;;;1.22;0.78;;;21.60;46.00;;;;;;1479282;93;22442;-36
2020/12/18 06:28:04;;;;;;;2.05;1.07;;;21.60;46.00;;;;;;1481850;95;21240;-34
2020/12/18 06:30:32;;;;;;;1.07;0.78;;;21.60;46.00;;;;;;1482213;93;21271;-36
2020/12/18 06:32:59;;;;;;;1.30;0.70;;;21.60;46.00;;;;;;1473337;95;21297;-36
2020/12/18 06:35:30;;;;;;;1.92;0.80;;;21.60;45.90;;;;;;1476578;95;21202;-35
2020/12/18 06:38:00;;;;;;;0.90;0.60;;;21.60;45.90;;;;;;1469052;95;21289;-35
2020/12/18 06:40:33;;;;;;;1.07;0.68;;;21.60;45.90;;;;;;1461446;95;21142;-34
2020/12/18 06:43:01;;;;;;;1.00;0.72;;;21.60;45.90;;;;;;1484351;94;21559;-35
2020/12/18 06:45:28;;;;;;;1.98;0.85;;;21.60;45.90;;;;;;1464483;95;21278;-35
2020/12/18 06:47:56;;;;;;;0.60;0.60;;;21.60;45.90;;;;;;1476092;94;21767;-34
2020/12/18 06:50:25;;;;;;;0.70;0.70;;;21.60;45.90;;;;;;1480595;94;21208;-35
2020/12/18 06:53:05;;;;;;;0.80;0.60;;;21.60;45.90;;;;;;1449912;95;21211;-36
2020/12/18 06:55:35;;;;;;;0.80;0.65;;;21.60;46.00;;;;;;1471940;95;67965;-35
2020/12/18 06:58:08;;;;;;;0.90;0.72;;;21.60;46.00;;;;;;1461766;95;21254;-34
2020/12/18 07:00:45;;;;;;;1.02;0.72;;;21.60;45.90;;;;;;1479099;94;21308;-34
2020/12/18 07:03:33;;;;;;;0.72;0.70;;;21.60;45.90;;;;;;1485972;95;21267;-36
2020/12/18 07:06:04;;;;;;;1.25;0.88;;;21.60;45.90;;;;;;1468930;95;67309;-34
2020/12/18 07:08:34;;;;;;;1.17;0.80;;;21.60;45.90;;;;;;1478582;94;21326;-34
2020/12/18 07:11:08;;;;;;;1.55;1.02;;;21.60;45.90;;;;;;1448780;95;21206;-34
2020/12/18 07:13:36;;;;;;;1.67;0.75;;;21.60;46.00;;;;;;1480072;95;21184;-34
2020/12/18 07:16:11;;;;;;;1.77;0.90;;;21.60;45.90;;;;;;1477433;94;21294;-34
2020/12/18 07:18:43;;;;;;;2.22;0.90;;;21.60;45.90;;;;;;1468066;95;21806;-33
2020/12/18 07:21:13;;;;;;;0.75;0.70;;;21.60;45.90;;;;;;1474499;93;21942;-34
2020/12/18 07:23:49;;;;;;;2.17;0.70;;;21.60;45.90;;;;;;1480707;93;21179;-35
2020/12/18 07:26:19;;;;;;;1.45;0.90;;;21.60;45.90;;;;;;1490774;93;21313;-35
2020/12/18 07:28:48;;;;;;;2.37;0.80;;;21.70;45.80;;;;;;1483131;94;21256;-35
2020/12/18 07:31:23;;;;;;;1.32;0.98;;;21.70;45.70;;;;;;1451286;95;21210;-34
2020/12/18 07:33:58;;;;;;;0.90;0.72;;;21.80;45.60;;;;;;1483295;95;21423;-35
2020/12/18 07:36:28;;;;;;;3.17;0.70;;;21.80;45.70;;;;;;1474566;96;21818;-36
2020/12/18 07:39:01;;;;;;;2.55;0.70;;;21.80;45.40;;;;;;1477837;95;21255;-36
2020/12/18 07:41:29;;;;;;;1.15;0.90;;;21.90;45.40;;;;;;1477247;95;21236;-34
2020/12/18 07:44:05;;;;;;;1.00;0.80;;;21.90;45.40;;;;;;1481069;94;21215;-36
2020/12/18 07:46:35;;;;;;;1.62;0.82;;;21.90;45.30;;;;;;1473647;95;21222;-34
2020/12/18 07:49:10;;;;;;;1.20;0.70;;;21.90;45.20;;;;;;1480426;95;21252;-35
2020/12/18 07:51:39;;;;;;;1.20;0.90;;;21.90;44.80;;;;;;1464366;96;21332;-34
2020/12/18 07:54:07;;;;;;;1.92;0.95;;;22.00;45.20;;;;;;1479042;94;21356;-34
2020/12/18 07:56:35;;;;;;;2.08;1.07;;;22.00;45.10;;;;;;1472771;94;21380;-34
2020/12/18 07:59:08;;;;;;;1.40;0.82;;;22.00;45.10;;;;;;1455477;95;21424;-37
2020/12/18 08:01:37;;;;;;;0.85;0.68;;;22.00;45.00;;;;;;1480928;95;21208;-34
2020/12/18 08:04:08;;;;;;;1.05;0.85;;;22.10;45.00;;;;;;1469832;95;21687;-36
2020/12/18 08:06:37;;;;;;;3.75;1.00;;;22.10;45.10;;;;;;1473508;94;21248;-34
2020/12/18 08:09:08;;;;;;;2.98;1.07;;;22.20;45.10;;;;;;1475835;95;21310;-34
2020/12/18 08:11:42;;;;;;;1.42;0.85;;;22.20;45.10;;;;;;1458818;96;21219;-34
2020/12/18 08:14:07;;;;;;;0.98;0.80;;;22.20;45.00;;;;;;1475357;95;21704;-36
2020/12/18 08:16:36;;;;;;;0.82;0.70;;;22.30;45.00;;;;;;1475790;95;21225;-34
2020/12/18 08:19:09;;;;;;;0.98;0.60;;;22.30;45.00;;;;;;1478522;95;21512;-35
2020/12/18 08:21:40;;;;;;;1.98;0.90;;;22.30;44.90;;;;;;1478630;95;21184;-34
2020/12/18 08:24:33;;;;;;;1.27;0.70;;;22.30;44.90;;;;;;1467865;94;21582;-36
2020/12/18 08:27:21;;;;;;;2.02;0.65;;;22.40;44.90;;;;;;1484775;95;67378;-37
2020/12/18 08:29:48;;;;;;;1.40;0.80;;;22.40;44.90;;;;;;1460581;95;68014;-33
2020/12/18 08:32:30;;;;;;;1.12;0.78;;;22.40;44.90;;;;;;1438471;96;21267;-33
2020/12/18 08:35:03;;;;;;;0.95;0.75;;;22.50;44.80;;;;;;1455018;95;67218;-34
2020/12/18 08:37:31;;;;;;;1.07;0.80;;;22.50;44.80;;;;;;1459932;95;21193;-35
2020/12/18 08:39:58;;;;;;;1.25;1.15;;;22.50;44.70;;;;;;1475108;94;22169;-34
2020/12/18 08:42:26;;;;;;;4.47;0.80;;;22.50;44.80;;;;;;1471363;94;21314;-34
2020/12/18 08:44:54;;;;;;;1.55;0.80;;;22.60;44.80;;;;;;1482198;94;21335;-35
2020/12/18 08:47:27;;;;;;;3.15;0.93;;;22.60;44.80;;;;;;1477610;94;21283;-35
2020/12/18 08:49:56;;;;;;;0.98;0.70;;;22.60;44.70;;;;;;1451466;95;21229;-34
2020/12/18 08:52:26;;;;;;;1.50;0.80;;;22.60;44.70;;;;;;1480359;94;21307;-35
2020/12/18 08:55:01;;;;;;;1.37;0.75;;;;;;;;;;1479139;95;21196;-34
2020/12/18 08:57:30;;;;;;;1.35;0.70;;;22.70;44.20;;;;;;1447151;95;21234;-38
2020/12/18 09:00:07;;;;;;;1.27;0.90;;;22.70;44.70;;;;;;1488830;95;21259;-33
2020/12/18 09:02:38;;;;;;;0.95;0.70;;;22.70;44.70;;;;;;1473450;94;21196;-33
2020/12/18 09:05:26;;;;;;;1.72;0.70;;;22.70;44.70;;;;;;1468162;94;21248;-33
2020/12/18 09:08:08;;;;;;;1.45;0.80;;;22.70;44.70;;;;;;1498650;94;67360;-35
2020/12/18 09:10:39;;;;;;;2.12;0.82;;;22.70;44.60;;;;;;1456095;95;67318;-34
2020/12/18 09:13:12;;;;;;;3.90;0.70;;;22.70;47.20;;;;;;1468750;95;21186;-35
2020/12/18 09:15:40;;;;;;;2.65;0.80;;;22.80;46.90;;;;;;1455169;95;21873;-34
2020/12/18 09:18:10;;;;;;;5.50;0.70;;;22.90;47.20;;;;;;1457884;96;21192;-33
2020/12/18 09:20:40;;;;;;;0.70;0.62;;;22.80;45.20;;;;;;1481690;94;21348;-32
2020/12/18 09:23:11;;;;;;;0.82;0.60;;;22.80;45.00;;;;;;1480917;95;21275;-34
2020/12/18 09:25:50;;;;;;;1.27;0.72;;;22.80;45.00;;;;;;1481606;94;21212;-33
2020/12/18 09:28:19;;;;;;;1.55;0.70;;;22.80;44.80;;;;;;1482174;95;21379;-36
2020/12/18 09:30:53;;;;;;;0.65;0.60;;;22.80;45.10;;;;;;1468269;94;22548;-33
2020/12/18 09:33:27;;;;;;;1.10;0.80;;;22.80;44.80;;;;;;1479220;94;21566;-32
2020/12/18 09:36:19;;;;;;;0.98;0.80;;;22.80;45.10;;;;;;1483308;95;21647;-33
2020/12/18 09:38:49;;;;;;;1.72;0.70;;;22.80;44.80;;;;;;1474952;92;67748;-36
2020/12/18 09:41:19;;;;;;;0.93;0.68;;;22.80;44.80;;;;;;1462121;96;21234;-33
2020/12/18 09:43:49;;;;;;;1.37;0.80;;;22.80;44.90;;;;;;1475896;95;22481;-35
2020/12/18 09:46:23;;;;;;;0.98;0.88;;;22.80;44.80;;;;;;1480116;95;21327;-34
2020/12/18 09:48:48;;;;;;;1.95;0.70;;;22.80;44.70;;;;;;1455954;95;21241;-34
2020/12/18 09:51:17;;;;;;;0.68;0.68;;;22.90;44.30;;;;;;1479456;95;21686;-33
2020/12/18 09:53:47;;;;;;;1.25;0.68;;;22.90;44.70;;;;;;1461809;95;21236;-34
2020/12/18 09:56:17;;;;;;;3.70;1.07;;;22.80;44.80;;;;;;1460704;95;21231;-34
2020/12/18 09:58:44;;;;;;;4.62;0.90;;;22.80;44.90;;;;;;1483601;95;21255;-35
2020/12/18 10:01:17;;;;;;;8.53;0.80;;;22.90;44.90;;;;;;1464372;95;21237;-37
2020/12/18 10:03:45;;;;;;;3.83;0.60;;;22.80;45.10;;;;;;1480789;95;21279;-35
2020/12/18 10:06:12;;;;;;;1.98;0.90;;;22.90;45.40;;;;;;1472646;94;22520;-37
2020/12/18 10:08:40;;;;;;;3.62;0.70;;;22.90;45.60;;;;;;1467246;95;21605;-35
2020/12/18 10:11:08;;;;;;;1.47;0.70;;;23.00;45.10;;;;;;1482876;95;22413;-35
2020/12/18 10:13:35;;;;;;;5.70;1.10;;;23.00;45.20;;;;;;1475485;94;21185;-34
2020/12/18 10:16:03;;;;;;;1.70;0.80;;;23.00;44.90;;;;;;1497921;94;21372;-34
2020/12/18 10:18:31;;;;;;;1.85;0.88;;;23.00;45.00;;;;;;1498188;94;21260;-35
2020/12/18 10:21:03;;;;;;;5.70;1.05;;;23.00;44.90;;;;;;1481905;94;21191;-35
2020/12/18 10:23:28;;;;;;;2.67;0.70;;;23.00;45.00;;;;;;1497916;94;21230;-35
2020/12/18 10:26:00;;;;;;;1.70;0.82;;;23.10;45.00;;;;;;1508654;94;21350;-34
2020/12/18 10:28:28;;;;;;;1.72;0.85;;;23.00;45.10;;;;;;1460089;96;21282;-35
2020/12/18 10:30:55;;;;;;;0.85;0.57;;;23.00;45.10;;;;;;1490870;94;21235;-35
2020/12/18 10:33:28;;;;;;;1.92;0.85;;;23.00;45.00;;;;;;1470602;96;21208;-35
2020/12/18 10:35:53;;;;;;;5.72;0.70;;;23.10;45.00;;;;;;1464308;94;21273;-35
2020/12/18 10:38:24;;;;;;;4.80;0.80;;;23.10;45.30;;;;;;1486385;94;21369;-33
2020/12/18 10:40:50;;;;;;;1.67;0.90;;;23.10;45.10;;;;;;1490007;94;21219;-34
2020/12/18 10:43:18;;;;;;;1.22;0.60;;;23.10;45.00;;;;;;1482952;94;21846;-35
2020/12/18 10:45:45;;;;;;;1.22;0.90;;;23.10;44.90;;;;;;1484095;94;21335;-35
2020/12/18 10:48:13;;;;;;;1.80;0.95;;;23.10;44.80;;;;;;1469232;96;21291;-34
2020/12/18 10:50:40;;;;;;;1.17;0.85;;;23.10;44.80;;;;;;1485509;94;22068;-35
2020/12/18 10:53:08;;;;;;;3.45;0.72;;;23.20;44.90;;;;;;1471025;96;21289;-34
2020/12/18 10:55:36;;;;;;;2.15;0.90;;;23.20;45.00;;;;;;1471480;95;21294;-34
2020/12/18 10:58:04;;;;;;;1.55;0.80;;;23.20;45.00;;;;;;1482564;94;21192;-33
2020/12/18 11:00:32;;;;;;;0.98;0.70;;;23.20;44.90;;;;;;1453738;94;21183;-34
2020/12/18 11:02:59;;;;;;;1.75;1.00;;;23.20;44.80;;;;;;1485638;94;21517;-36
2020/12/18 11:05:28;;;;;;;2.72;0.93;;;23.20;45.10;;;;;;1485895;94;21187;-37
2020/12/18 11:07:55;;;;;;;3.80;1.00;;;23.20;45.10;;;;;;1472703;94;21267;-36
2020/12/18 11:10:23;;;;;;;1.95;0.80;;;23.20;45.00;;;;;;1490555;94;21325;-34
2020/12/18 11:12:51;;;;;;;2.15;0.80;;;23.20;44.90;;;;;;1473910;94;21379;-33
2020/12/18 11:15:19;;;;;;;0.60;0.60;;;23.20;45.70;;;;;;1472181;95;21175;-35
2020/12/18 11:17:48;;;;;;;1.70;0.88;;;23.20;45.20;;;;;;1486104;94;22118;-34
2020/12/18 11:20:16;;;;;;;1.20;0.80;;;23.20;44.90;;;;;;1471880;95;21274;-34
2020/12/18 11:22:44;;;;;;;2.05;0.82;;;23.20;44.90;;;;;;1489505;94;21678;-34
2020/12/18 11:25:11;;;;;;;1.37;0.72;;;23.20;45.00;;;;;;1490555;94;21223;-35
2020/12/18 11:27:39;;;;;;;0.93;0.82;;;23.20;45.20;;;;;;1472575;96;21297;-34
2020/12/18 11:30:07;;;;;;;1.17;0.70;;;23.30;45.10;;;;;;1491720;94;21235;-35
2020/12/18 11:32:35;;;;;;;3.92;1.05;;;23.30;45.20;;;;;;1471776;96;21266;-33
2020/12/18 11:35:03;;;;;;;1.47;0.62;;;23.30;45.10;;;;;;1473537;96;21199;-35
2020/12/18 11:37:31;;;;;;;5.00;1.10;;;23.30;44.90;;;;;;1490350;94;21212;-35
2020/12/18 11:39:59;;;;;;;1.37;0.82;;;23.30;44.90;;;;;;1473176;94;21148;-34
2020/12/18 11:42:26;;;;;;;1.55;0.80;;;23.30;45.00;;;;;;1493155;94;21326;-35
2020/12/18 11:44:54;;;;;;;2.08;1.15;;;23.30;45.00;;;;;;1488853;94;21235;-34
2020/12/18 11:47:23;;;;;;;2.77;0.80;;;23.30;44.90;;;;;;1455363;96;21125;-35
2020/12/18 11:49:51;;;;;;;1.15;0.70;;;23.20;45.00;;;;;;1486226;94;22567;-35
2020/12/18 11:52:19;;;;;;;4.33;1.20;;;23.20;45.00;;;;;;1471889;96;21216;-33
2020/12/18 11:54:46;;;;;;;3.10;1.10;;;23.20;45.10;;;;;;1470779;94;21222;-36
2020/12/18 11:57:15;;;;;;;0.80;0.60;;;23.20;45.00;;;;;;1487716;94;21271;-36
2020/12/18 11:59:43;;;;;;;3.17;0.90;;;23.20;44.90;;;;;;1469773;95;21239;-36
2020/12/18 12:02:11;;;;;;;3.52;1.20;;;23.30;44.70;;;;;;1488615;94;21223;-35
2020/12/18 12:04:38;;;;;;;3.30;0.90;;;23.30;44.50;;;;;;1490456;94;21286;-33
2020/12/18 12:07:06;;;;;;;1.35;0.90;;;23.30;44.50;;;;;;1477409;94;21200;-34
2020/12/18 12:09:34;;;;;;;2.45;1.12;;;23.30;44.40;;;;;;1487510;94;21808;-35
2020/12/18 12:12:02;;;;;;;2.40;1.00;;;23.30;44.50;;;;;;1470049;95;21235;-35
2020/12/18 12:14:29;;;;;;;2.50;1.00;;;23.30;44.90;;;;;;1489656;94;21386;-36
2020/12/18 12:16:58;;;;;;;1.62;1.10;;;23.30;44.20;;;;;;1487951;94;21184;-35
2020/12/18 12:19:28;;;;;;;3.15;1.02;;;23.30;44.00;;;;;;1471690;96;21725;-34
2020/12/18 12:21:56;;;;;;;2.00;1.00;;;23.30;44.20;;;;;;1487336;94;21879;-35
2020/12/18 12:24:24;;;;;;;1.98;0.90;;;23.30;44.20;;;;;;1491518;94;21266;-34
2020/12/18 12:26:52;;;;;;;2.67;1.15;;;23.30;44.30;;;;;;1472978;94;21289;-35
2020/12/18 12:29:20;;;;;;;3.33;1.55;;;23.30;44.70;;;;;;1488129;94;21341;-35
2020/12/18 12:31:47;;;;;;;3.25;1.20;;;23.30;44.10;;;;;;1471507;94;21183;-34
2020/12/18 12:34:15;;;;;;;2.98;1.00;;;23.30;44.10;;;;;;1458455;96;21317;-35
2020/12/18 12:36:43;;;;;;;1.50;0.80;;;23.30;44.10;;;;;;1475987;95;21144;-34
2020/12/18 12:39:11;;;;;;;1.15;0.70;;;23.30;44.10;;;;;;1438150;97;21252;-34
2020/12/18 12:41:38;;;;;;;4.62;1.22;;;23.30;44.10;;;;;;1491014;94;21865;-34
2020/12/18 12:44:06;;;;;;;4.15;1.02;;;23.30;44.10;;;;;;1484559;94;21352;-34
2020/12/18 12:46:37;;;;;;;6.45;1.10;;;23.30;44.20;;;;;;1482680;94;21231;-35
2020/12/18 12:49:05;;;;;;;2.87;1.10;;;23.30;44.20;;;;;;1473623;94;21154;-34
2020/12/18 12:51:33;;;;;;;4.67;1.10;;;23.30;44.20;;;;;;1470275;96;21289;-34
2020/12/18 12:54:00;;;;;;;2.83;0.88;;;23.20;44.20;;;;;;1471095;94;21354;-35
2020/12/18 12:56:28;;;;;;;3.08;1.25;;;23.00;44.40;;;;;;1498994;94;21251;-37
2020/12/18 12:58:56;;;;;;;2.33;1.00;;;22.90;44.70;;;;;;1458877;94;21739;-34